SWR3WL LSZH-LEMG
Flight info
| Callsign | SWR3WL |
|---|---|
| Flight time | N/A |
| Altitude | 33000 |
| Route | VEBIT T50 ROTOS Z669 ULMES DCT VADAR DCT NINTU/N0454F350 DCT MEBAK DCT REPSI DCT LERGA DCT MINSO DCT NARAK DCT AGN/N0455F370 DCT MAQAB DCT TIVLI DCT ELSAP DCT ZAR DCT EXEMU DCT PISUS DCT EDIMU DCT ADUXO DCT NUSGO DCT OBIBO DCT NASOS DCT ANZAN DCT BLN |
| Aircraft | A321/M-SDE3FGHIRWY/LB1 |
Departure
| Time | 2026-05-06 17:38 |
|---|---|
| Airport | Zürich Airport (LSZH) |
Arrival
| Time | N/A |
|---|---|
| Airport | Málaga-Costa del Sol Airport (LEMG) |
| Time | Latitude | Longitude | Altitude | Speed | Heading |
|---|---|---|---|---|---|
| 2026-05-06 17:06 | 47.45436 | 8.55635 | 1412 ft | 0 kts | 186° |
| 2026-05-06 17:29 | 47.45447 | 8.55637 | 1412 ft | 4 kts | 190° |
| 2026-05-06 17:29 | 47.45473 | 8.55643 | 1407 ft | 4 kts | 174° |
| 2026-05-06 17:29 | 47.45494 | 8.55635 | 1407 ft | 4 kts | 153° |
| 2026-05-06 17:29 | 47.45514 | 8.55612 | 1415 ft | 4 kts | 117° |
| 2026-05-06 17:30 | 47.45520 | 8.55589 | 1407 ft | 0 kts | 96° |
| 2026-05-06 17:33 | 47.45520 | 8.55591 | 1407 ft | 1 kts | 96° |
| 2026-05-06 17:33 | 47.45515 | 8.55654 | 1407 ft | 11 kts | 96° |
| 2026-05-06 17:33 | 47.45505 | 8.55784 | 1411 ft | 13 kts | 96° |
| 2026-05-06 17:34 | 47.45497 | 8.55906 | 1407 ft | 12 kts | 96° |
| 2026-05-06 17:34 | 47.45488 | 8.56025 | 1410 ft | 11 kts | 96° |
| 2026-05-06 17:34 | 47.45480 | 8.56132 | 1409 ft | 10 kts | 96° |
| 2026-05-06 17:34 | 47.45487 | 8.56224 | 1414 ft | 8 kts | 62° |
| 2026-05-06 17:35 | 47.45514 | 8.56274 | 1414 ft | 5 kts | 52° |
| 2026-05-06 17:35 | 47.45555 | 8.56354 | 1415 ft | 12 kts | 51° |
| 2026-05-06 17:35 | 47.45594 | 8.56447 | 1416 ft | 10 kts | 80° |
| 2026-05-06 17:36 | 47.45575 | 8.56741 | 1425 ft | 16 kts | 96° |
| 2026-05-06 17:36 | 47.45564 | 8.56890 | 1420 ft | 14 kts | 96° |
| 2026-05-06 17:36 | 47.45577 | 8.56993 | 1422 ft | 9 kts | 50° |
| 2026-05-06 17:36 | 47.45644 | 8.57004 | 1425 ft | 11 kts | 333° |
| 2026-05-06 17:37 | 47.45668 | 8.56934 | 1424 ft | 0 kts | 277° |
| 2026-05-06 17:37 | 47.45668 | 8.56935 | 1424 ft | 0 kts | 277° |
| 2026-05-06 17:37 | 47.45668 | 8.56926 | 1424 ft | 7 kts | 277° |
| 2026-05-06 17:37 | 47.45705 | 8.56411 | 1420 ft | 97 kts | 276° |
| 2026-05-06 17:38 | 47.45801 | 8.55024 | 1418 ft | 169 kts | 275° |
| 2026-05-06 17:38 | 47.45920 | 8.53226 | 2160 ft | 176 kts | 275° |
| 2026-05-06 17:38 | 47.46052 | 8.51418 | 3116 ft | 181 kts | 275° |
| 2026-05-06 17:38 | 47.46192 | 8.49518 | 3827 ft | 187 kts | 274° |
| 2026-05-06 17:39 | 47.46075 | 8.47625 | 4335 ft | 188 kts | 244° |
| 2026-05-06 17:39 | 47.45166 | 8.46222 | 4821 ft | 194 kts | 217° |
| 2026-05-06 17:39 | 47.44117 | 8.44962 | 5337 ft | 197 kts | 227° |
| 2026-05-06 17:39 | 47.43201 | 8.43334 | 5552 ft | 217 kts | 234° |
| 2026-05-06 17:40 | 47.42262 | 8.41431 | 5727 ft | 242 kts | 235° |
| 2026-05-06 17:40 | 47.41253 | 8.39332 | 6289 ft | 255 kts | 235° |
| 2026-05-06 17:40 | 47.40212 | 8.37189 | 7072 ft | 259 kts | 235° |
| 2026-05-06 17:40 | 47.39142 | 8.35019 | 7831 ft | 263 kts | 235° |
| 2026-05-06 17:41 | 47.38231 | 8.32655 | 8587 ft | 267 kts | 244° |
| 2026-05-06 17:41 | 47.37396 | 8.30183 | 9334 ft | 272 kts | 243° |
| 2026-05-06 17:41 | 47.36524 | 8.27684 | 10072 ft | 276 kts | 242° |
| 2026-05-06 17:41 | 47.35606 | 8.25104 | 10409 ft | 295 kts | 242° |
| 2026-05-06 17:42 | 47.34620 | 8.22356 | 10586 ft | 318 kts | 242° |
| 2026-05-06 17:42 | 47.33558 | 8.19392 | 10933 ft | 333 kts | 242° |